Terminal Aerodrome Forecast
Issued by NWS

Home | Current Version | Previous Version | Text Only | Print | Product List | Glossary On
Versions: 1 2 3 4 5 6 7 8 9 10 11 12 13 14
000
FTUS43 KFGF 231700 AAA
TAFTVF
TAF AMD
KTVF 231706Z 2317/2412 14018G28KT P6SM OVC080
      TEMPO 2317/2318 -RA OVC040
     FM231800 13020G26KT P6SM -RA OVC060
     FM232000 13018G28KT 4SM -RA BR OVC025
      AMD LTD TO CLD VIS AND WIND=

USA.gov is the U.S. government's official web portal to all federal, state and local government web resources and services.